This is the latest recevied weather packets stored in our database for station/object NY3Q. If no packets are shown the sender has not sent any weather packets the latest 10 day(s).
| Time | Temp. | Humidity | Pressure | Rain* | Wind** | Luminosity | Snow |
|---|---|---|---|---|---|---|---|
| 1778008384 | 27.22° C | 49% | 1016.6 hPa | 0 mm | - | 594 W/m² | - |
| 1778008080 | 27.78° C | 44% | 1016.7 hPa | 0 mm | - | 584 W/m² | - |
| 1778007472 | 27.78° C | 48% | 1016.7 hPa | 0 mm | - | 627 W/m² | - |
| 1778006258 | 28.33° C | 47% | 1017.1 hPa | 0 mm | - | 638 W/m² | - |
| 1778005956 | 27.78° C | 48% | 1016.9 hPa | 0 mm | - | 640 W/m² | - |
| 1778005349 | 27.78° C | 48% | 1017.1 hPa | 0 mm | - | 635 W/m² | - |
| 1778003226 | 28.33° C | 49% | 1017.5 hPa | 0 mm | - | 666 W/m² | - |
| 1778002619 | 26.67° C | 49% | 1017.1 hPa | 0 mm | - | 678 W/m² | - |
| 1778002013 | 27.78° C | 49% | 1017.4 hPa | 0 mm | - | 703 W/m² | - |
| 1778001710 | 26.67° C | 53% | 1017.3 hPa | 0 mm | - | 689 W/m² | - |
| 1778001409 | 27.22° C | 48% | 1017.4 hPa | 0 mm | - | 664 W/m² | - |
| 1778001107 | 27.22° C | 49% | 1017.4 hPa | 0 mm | - | 652 W/m² | - |
| 1778000804 | 27.78° C | 45% | 1017.6 hPa | 0 mm | - | 694 W/m² | - |
| 1778000501 | 27.22° C | 50% | 1017.5 hPa | 0 mm | - | 681 W/m² | - |
| 1777998988 | 27.22° C | 50% | 1017.7 hPa | 0 mm | - | 646 W/m² | - |
| 1777998685 | 27.22° C | 48% | 1017.9 hPa | 0 mm | - | 612 W/m² | - |
| 1777998383 | 27.78° C | 45% | 1018 hPa | 0 mm | - | 650 W/m² | - |
| 1777998081 | 27.78° C | 46% | 1018 hPa | 0 mm | - | 637 W/m² | - |
| 1777997778 | 27.78° C | 49% | 1017.8 hPa | 0 mm | - | 631 W/m² | - |
| 1777997173 | 27.78° C | 48% | 1017.9 hPa | 0 mm | - | 614 W/m² | - |
| 1777996870 | 27.22° C | 48% | 1017.8 hPa | 0 mm | - | 605 W/m² | - |
| 1777996566 | 26.67° C | 48% | 1017.9 hPa | 0 mm | - | 598 W/m² | - |
| 1777995352 | 26.67° C | 52% | 1017.6 hPa | 0 mm | - | 569 W/m² | - |
| 1777995049 | 26.67° C | 50% | 1017.9 hPa | 0 mm | - | 562 W/m² | - |
| 1777994746 | 26.67° C | 47% | 1018 hPa | 0 mm | - | 552 W/m² | - |
* Rain latest hour (hover to see other rain measurements)
** Current wind speed in m/s (hover to see current wind gust speed)